sensor_id;sensor_type;location;lat;lon;timestamp;temperature;humidity
73780;SHT30;62093;37.614;15.072;2023-07-16T00:02:15;26.45;60.11
73780;SHT30;62093;37.614;15.072;2023-07-16T00:04:40;26.44;60.07
73780;SHT30;62093;37.614;15.072;2023-07-16T00:07:06;26.45;60.02
73780;SHT30;62093;37.614;15.072;2023-07-16T00:09:32;26.47;60.06
73780;SHT30;62093;37.614;15.072;2023-07-16T00:11:58;26.42;60.08
73780;SHT30;62093;37.614;15.072;2023-07-16T00:14:24;26.44;60.12
73780;SHT30;62093;37.614;15.072;2023-07-16T00:16:49;26.41;60.12
73780;SHT30;62093;37.614;15.072;2023-07-16T00:19:15;26.41;60.09
73780;SHT30;62093;37.614;15.072;2023-07-16T00:21:41;26.42;60.09
73780;SHT30;62093;37.614;15.072;2023-07-16T00:24:07;26.39;60.11
73780;SHT30;62093;37.614;15.072;2023-07-16T00:26:33;26.39;60.18
73780;SHT30;62093;37.614;15.072;2023-07-16T00:28:58;26.39;60.15
73780;SHT30;62093;37.614;15.072;2023-07-16T00:31:25;26.39;60.13
73780;SHT30;62093;37.614;15.072;2023-07-16T00:33:51;26.41;60.08
73780;SHT30;62093;37.614;15.072;2023-07-16T00:36:17;26.38;60.13
73780;SHT30;62093;37.614;15.072;2023-07-16T00:38:44;26.37;60.14
73780;SHT30;62093;37.614;15.072;2023-07-16T00:41:13;26.38;60.17
73780;SHT30;62093;37.614;15.072;2023-07-16T00:43:38;26.35;60.17
73780;SHT30;62093;37.614;15.072;2023-07-16T00:46:04;26.34;60.24
73780;SHT30;62093;37.614;15.072;2023-07-16T00:48:30;26.35;60.23
73780;SHT30;62093;37.614;15.072;2023-07-16T00:50:56;26.32;60.29
73780;SHT30;62093;37.614;15.072;2023-07-16T00:53:22;26.31;60.32
73780;SHT30;62093;37.614;15.072;2023-07-16T00:55:49;26.32;60.25
73780;SHT30;62093;37.614;15.072;2023-07-16T00:58:14;26.31;60.29
73780;SHT30;62093;37.614;15.072;2023-07-16T01:00:41;26.31;60.34
73780;SHT30;62093;37.614;15.072;2023-07-16T01:03:12;26.34;60.34
73780;SHT30;62093;37.614;15.072;2023-07-16T01:08:26;26.31;60.33
73780;SHT30;62093;37.614;15.072;2023-07-16T01:10:54;26.31;60.32
73780;SHT30;62093;37.614;15.072;2023-07-16T01:13:20;26.31;60.35
73780;SHT30;62093;37.614;15.072;2023-07-16T01:15:46;26.31;60.33
73780;SHT30;62093;37.614;15.072;2023-07-16T01:18:13;26.28;60.40
73780;SHT30;62093;37.614;15.072;2023-07-16T01:20:39;26.29;60.35
73780;SHT30;62093;37.614;15.072;2023-07-16T01:29:35;26.28;60.42
73780;SHT30;62093;37.614;15.072;2023-07-16T01:32:07;26.27;60.43
73780;SHT30;62093;37.614;15.072;2023-07-16T01:34:36;26.27;60.40
73780;SHT30;62093;37.614;15.072;2023-07-16T01:37:02;26.25;60.44
73780;SHT30;62093;37.614;15.072;2023-07-16T01:39:30;26.27;60.44
73780;SHT30;62093;37.614;15.072;2023-07-16T01:41:56;26.24;60.42
73780;SHT30;62093;37.614;15.072;2023-07-16T01:44:22;26.24;60.44
73780;SHT30;62093;37.614;15.072;2023-07-16T01:47:00;26.27;60.45
73780;SHT30;62093;37.614;15.072;2023-07-16T01:49:29;26.27;60.49
73780;SHT30;62093;37.614;15.072;2023-07-16T01:51:55;26.25;60.49
73780;SHT30;62093;37.614;15.072;2023-07-16T01:54:21;26.25;60.49
73780;SHT30;62093;37.614;15.072;2023-07-16T01:56:46;26.24;60.49
73780;SHT30;62093;37.614;15.072;2023-07-16T01:59:12;26.25;60.50
73780;SHT30;62093;37.614;15.072;2023-07-16T02:01:38;26.25;60.53
73780;SHT30;62093;37.614;15.072;2023-07-16T02:04:04;26.22;60.53
73780;SHT30;62093;37.614;15.072;2023-07-16T02:06:29;26.21;60.53
73780;SHT30;62093;37.614;15.072;2023-07-16T02:08:55;26.21;60.56
73780;SHT30;62093;37.614;15.072;2023-07-16T02:11:21;26.20;60.52
73780;SHT30;62093;37.614;15.072;2023-07-16T02:13:47;26.21;60.54
73780;SHT30;62093;37.614;15.072;2023-07-16T02:16:13;26.21;60.57
73780;SHT30;62093;37.614;15.072;2023-07-16T02:18:39;26.20;60.59
73780;SHT30;62093;37.614;15.072;2023-07-16T02:21:05;26.20;60.56
73780;SHT30;62093;37.614;15.072;2023-07-16T02:23:31;26.18;60.59
73780;SHT30;62093;37.614;15.072;2023-07-16T02:25:57;26.20;60.58
73780;SHT30;62093;37.614;15.072;2023-07-16T02:28:23;26.18;60.59
73780;SHT30;62093;37.614;15.072;2023-07-16T02:30:49;26.18;60.60
73780;SHT30;62093;37.614;15.072;2023-07-16T02:33:16;26.20;60.61
73780;SHT30;62093;37.614;15.072;2023-07-16T02:35:49;26.17;60.60
73780;SHT30;62093;37.614;15.072;2023-07-16T02:38:15;26.18;60.60
73780;SHT30;62093;37.614;15.072;2023-07-16T02:40:45;26.18;60.64
73780;SHT30;62093;37.614;15.072;2023-07-16T02:43:11;26.17;60.61
73780;SHT30;62093;37.614;15.072;2023-07-16T02:45:37;26.17;60.62
73780;SHT30;62093;37.614;15.072;2023-07-16T02:48:05;26.14;60.67
73780;SHT30;62093;37.614;15.072;2023-07-16T02:50:35;26.18;60.63
73780;SHT30;62093;37.614;15.072;2023-07-16T02:53:02;26.16;60.62
73780;SHT30;62093;37.614;15.072;2023-07-16T02:55:28;26.16;60.62
73780;SHT30;62093;37.614;15.072;2023-07-16T02:57:54;26.17;60.61
73780;SHT30;62093;37.614;15.072;2023-07-16T03:00:20;26.17;60.64
73780;SHT30;62093;37.614;15.072;2023-07-16T03:02:46;26.13;60.64
73780;SHT30;62093;37.614;15.072;2023-07-16T03:05:12;26.14;60.66
73780;SHT30;62093;37.614;15.072;2023-07-16T03:07:38;26.14;60.69
73780;SHT30;62093;37.614;15.072;2023-07-16T03:10:04;26.14;60.64
73780;SHT30;62093;37.614;15.072;2023-07-16T03:12:30;26.14;60.69
73780;SHT30;62093;37.614;15.072;2023-07-16T03:14:55;26.11;60.71
73780;SHT30;62093;37.614;15.072;2023-07-16T03:17:21;26.11;60.67
73780;SHT30;62093;37.614;15.072;2023-07-16T03:19:50;26.10;60.68
73780;SHT30;62093;37.614;15.072;2023-07-16T03:22:16;26.10;60.75
73780;SHT30;62093;37.614;15.072;2023-07-16T03:24:42;26.11;60.69
73780;SHT30;62093;37.614;15.072;2023-07-16T03:27:08;26.10;60.73
73780;SHT30;62093;37.614;15.072;2023-07-16T03:29:34;26.10;60.73
73780;SHT30;62093;37.614;15.072;2023-07-16T03:32:00;26.10;60.73
73780;SHT30;62093;37.614;15.072;2023-07-16T03:34:28;26.08;60.73
73780;SHT30;62093;37.614;15.072;2023-07-16T03:36:54;26.05;60.76
73780;SHT30;62093;37.614;15.072;2023-07-16T03:39:19;26.07;60.76
73780;SHT30;62093;37.614;15.072;2023-07-16T03:41:45;26.08;60.80
73780;SHT30;62093;37.614;15.072;2023-07-16T03:44:11;26.07;60.81
73780;SHT30;62093;37.614;15.072;2023-07-16T03:46:37;26.07;60.76
73780;SHT30;62093;37.614;15.072;2023-07-16T03:49:06;26.07;60.78
73780;SHT30;62093;37.614;15.072;2023-07-16T03:51:33;26.05;60.81
73780;SHT30;62093;37.614;15.072;2023-07-16T03:53:58;26.05;60.86
73780;SHT30;62093;37.614;15.072;2023-07-16T03:56:24;26.04;60.86
73780;SHT30;62093;37.614;15.072;2023-07-16T03:58:50;26.01;60.83
73780;SHT30;62093;37.614;15.072;2023-07-16T04:01:16;26.01;60.89
73780;SHT30;62093;37.614;15.072;2023-07-16T04:03:42;26.02;60.88
73780;SHT30;62093;37.614;15.072;2023-07-16T04:06:09;26.04;60.90
73780;SHT30;62093;37.614;15.072;2023-07-16T04:08:36;26.05;60.87
73780;SHT30;62093;37.614;15.072;2023-07-16T04:11:03;26.02;60.91
73780;SHT30;62093;37.614;15.072;2023-07-16T04:13:29;26.02;60.90
73780;SHT30;62093;37.614;15.072;2023-07-16T04:15:55;26.01;60.90
73780;SHT30;62093;37.614;15.072;2023-07-16T04:18:26;26.01;60.90
73780;SHT30;62093;37.614;15.072;2023-07-16T04:20:52;26.00;60.96
73780;SHT30;62093;37.614;15.072;2023-07-16T04:23:20;26.01;60.92
73780;SHT30;62093;37.614;15.072;2023-07-16T04:25:46;26.00;60.97
73780;SHT30;62093;37.614;15.072;2023-07-16T04:28:12;26.01;60.94
73780;SHT30;62093;37.614;15.072;2023-07-16T04:30:38;26.01;60.94
73780;SHT30;62093;37.614;15.072;2023-07-16T04:33:04;25.98;60.92
73780;SHT30;62093;37.614;15.072;2023-07-16T04:35:30;25.97;60.96
73780;SHT30;62093;37.614;15.072;2023-07-16T04:37:56;26.00;60.98
73780;SHT30;62093;37.614;15.072;2023-07-16T04:40:22;25.98;60.98
73780;SHT30;62093;37.614;15.072;2023-07-16T04:42:48;25.98;60.98
73780;SHT30;62093;37.614;15.072;2023-07-16T04:45:13;26.00;60.99
73780;SHT30;62093;37.614;15.072;2023-07-16T04:47:39;25.98;60.99
73780;SHT30;62093;37.614;15.072;2023-07-16T04:50:06;26.01;60.96
73780;SHT30;62093;37.614;15.072;2023-07-16T04:52:31;25.98;60.97
73780;SHT30;62093;37.614;15.072;2023-07-16T04:54:57;25.98;60.98
73780;SHT30;62093;37.614;15.072;2023-07-16T04:57:23;26.00;60.98
73780;SHT30;62093;37.614;15.072;2023-07-16T04:59:49;25.98;61.04
73780;SHT30;62093;37.614;15.072;2023-07-16T05:02:15;25.97;61.02
73780;SHT30;62093;37.614;15.072;2023-07-16T05:04:42;25.98;61.00
73780;SHT30;62093;37.614;15.072;2023-07-16T05:07:09;26.00;61.00
73780;SHT30;62093;37.614;15.072;2023-07-16T05:09:35;25.98;61.03
73780;SHT30;62093;37.614;15.072;2023-07-16T05:12:02;26.01;61.00
73780;SHT30;62093;37.614;15.072;2023-07-16T05:14:28;26.01;61.02
73780;SHT30;62093;37.614;15.072;2023-07-16T05:16:55;26.01;61.01
73780;SHT30;62093;37.614;15.072;2023-07-16T05:19:21;25.98;61.04
73780;SHT30;62093;37.614;15.072;2023-07-16T05:21:47;26.00;61.03
73780;SHT30;62093;37.614;15.072;2023-07-16T05:24:13;26.01;60.98
73780;SHT30;62093;37.614;15.072;2023-07-16T05:26:39;26.01;61.03
73780;SHT30;62093;37.614;15.072;2023-07-16T05:29:05;26.00;60.98
73780;SHT30;62093;37.614;15.072;2023-07-16T05:31:30;26.00;60.98
73780;SHT30;62093;37.614;15.072;2023-07-16T05:33:56;25.98;60.96
73780;SHT30;62093;37.614;15.072;2023-07-16T05:36:22;26.01;60.97
73780;SHT30;62093;37.614;15.072;2023-07-16T05:38:48;26.01;60.99
73780;SHT30;62093;37.614;15.072;2023-07-16T05:41:14;26.00;61.00
73780;SHT30;62093;37.614;15.072;2023-07-16T05:43:39;26.01;60.98
73780;SHT30;62093;37.614;15.072;2023-07-16T05:46:05;26.02;60.97
73780;SHT30;62093;37.614;15.072;2023-07-16T05:48:32;26.01;60.93
73780;SHT30;62093;37.614;15.072;2023-07-16T05:50:57;26.04;60.97
73780;SHT30;62093;37.614;15.072;2023-07-16T05:53:23;26.02;60.93
73780;SHT30;62093;37.614;15.072;2023-07-16T05:55:49;26.02;60.94
73780;SHT30;62093;37.614;15.072;2023-07-16T05:58:16;26.00;60.92
73780;SHT30;62093;37.614;15.072;2023-07-16T06:00:42;26.04;60.98
73780;SHT30;62093;37.614;15.072;2023-07-16T06:03:08;26.02;60.93
73780;SHT30;62093;37.614;15.072;2023-07-16T06:05:34;26.05;60.94
73780;SHT30;62093;37.614;15.072;2023-07-16T06:08:00;26.04;60.90
73780;SHT30;62093;37.614;15.072;2023-07-16T06:10:27;26.02;60.91
73780;SHT30;62093;37.614;15.072;2023-07-16T06:12:53;26.05;60.88
73780;SHT30;62093;37.614;15.072;2023-07-16T06:15:18;26.07;60.91
73780;SHT30;62093;37.614;15.072;2023-07-16T06:17:44;26.04;60.89
73780;SHT30;62093;37.614;15.072;2023-07-16T06:20:10;26.07;60.88
73780;SHT30;62093;37.614;15.072;2023-07-16T06:22:36;26.07;60.91
73780;SHT30;62093;37.614;15.072;2023-07-16T06:25:02;26.07;60.85
73780;SHT30;62093;37.614;15.072;2023-07-16T06:27:28;26.07;60.88
73780;SHT30;62093;37.614;15.072;2023-07-16T06:29:54;26.08;60.88
73780;SHT30;62093;37.614;15.072;2023-07-16T06:32:20;26.10;60.86
73780;SHT30;62093;37.614;15.072;2023-07-16T06:34:46;26.07;60.83
73780;SHT30;62093;37.614;15.072;2023-07-16T06:37:11;26.08;60.82
73780;SHT30;62093;37.614;15.072;2023-07-16T06:39:37;26.11;60.81
73780;SHT30;62093;37.614;15.072;2023-07-16T06:42:03;26.08;60.81
73780;SHT30;62093;37.614;15.072;2023-07-16T06:44:29;26.10;60.81
73780;SHT30;62093;37.614;15.072;2023-07-16T06:46:55;26.11;60.79
73780;SHT30;62093;37.614;15.072;2023-07-16T06:49:22;26.11;60.81
73780;SHT30;62093;37.614;15.072;2023-07-16T06:51:47;26.13;60.78
73780;SHT30;62093;37.614;15.072;2023-07-16T06:54:13;26.11;60.79
73780;SHT30;62093;37.614;15.072;2023-07-16T06:56:39;26.11;60.80
73780;SHT30;62093;37.614;15.072;2023-07-16T06:59:05;26.13;60.79
73780;SHT30;62093;37.614;15.072;2023-07-16T07:01:31;26.13;60.78
73780;SHT30;62093;37.614;15.072;2023-07-16T07:03:57;26.14;60.78
73780;SHT30;62093;37.614;15.072;2023-07-16T07:06:22;26.11;60.77
73780;SHT30;62093;37.614;15.072;2023-07-16T07:08:48;26.16;60.75
73780;SHT30;62093;37.614;15.072;2023-07-16T07:11:14;26.14;60.78
73780;SHT30;62093;37.614;15.072;2023-07-16T07:13:40;26.14;60.77
73780;SHT30;62093;37.614;15.072;2023-07-16T07:16:05;26.16;60.72
73780;SHT30;62093;37.614;15.072;2023-07-16T07:18:31;26.14;60.75
73780;SHT30;62093;37.614;15.072;2023-07-16T07:20:57;26.17;60.74
73780;SHT30;62093;37.614;15.072;2023-07-16T07:23:23;26.17;60.75
73780;SHT30;62093;37.614;15.072;2023-07-16T07:25:50;26.16;60.68
73780;SHT30;62093;37.614;15.072;2023-07-16T07:28:16;26.18;60.76
73780;SHT30;62093;37.614;15.072;2023-07-16T07:30:43;26.18;60.72
73780;SHT30;62093;37.614;15.072;2023-07-16T07:33:09;26.17;60.72
73780;SHT30;62093;37.614;15.072;2023-07-16T07:35:35;26.18;60.72
73780;SHT30;62093;37.614;15.072;2023-07-16T07:38:00;26.20;60.69
73780;SHT30;62093;37.614;15.072;2023-07-16T07:40:26;26.20;60.70
73780;SHT30;62093;37.614;15.072;2023-07-16T07:42:52;26.18;60.71
73780;SHT30;62093;37.614;15.072;2023-07-16T07:45:18;26.21;60.63
73780;SHT30;62093;37.614;15.072;2023-07-16T07:47:44;26.20;60.68
73780;SHT30;62093;37.614;15.072;2023-07-16T07:50:10;26.21;60.67
73780;SHT30;62093;37.614;15.072;2023-07-16T07:52:36;26.21;60.67
73780;SHT30;62093;37.614;15.072;2023-07-16T07:55:02;26.22;60.64
73780;SHT30;62093;37.614;15.072;2023-07-16T07:57:29;26.22;60.62
73780;SHT30;62093;37.614;15.072;2023-07-16T07:59:55;26.24;60.61
73780;SHT30;62093;37.614;15.072;2023-07-16T08:02:24;26.22;60.65
73780;SHT30;62093;37.614;15.072;2023-07-16T08:04:54;26.24;60.60
73780;SHT30;62093;37.614;15.072;2023-07-16T08:07:21;26.22;60.57
73780;SHT30;62093;37.614;15.072;2023-07-16T08:09:48;26.24;60.61
73780;SHT30;62093;37.614;15.072;2023-07-16T08:12:14;26.24;60.58
73780;SHT30;62093;37.614;15.072;2023-07-16T08:14:40;26.27;60.60
73780;SHT30;62093;37.614;15.072;2023-07-16T08:17:07;26.27;60.57
73780;SHT30;62093;37.614;15.072;2023-07-16T08:19:33;26.27;60.56
73780;SHT30;62093;37.614;15.072;2023-07-16T08:21:59;26.27;60.56
73780;SHT30;62093;37.614;15.072;2023-07-16T08:24:25;26.28;60.57
73780;SHT30;62093;37.614;15.072;2023-07-16T08:26:51;26.29;60.49
73780;SHT30;62093;37.614;15.072;2023-07-16T08:29:17;26.27;60.49
73780;SHT30;62093;37.614;15.072;2023-07-16T08:31:43;26.29;60.54
73780;SHT30;62093;37.614;15.072;2023-07-16T08:34:08;26.28;60.49
73780;SHT30;62093;37.614;15.072;2023-07-16T08:36:36;26.29;60.51
73780;SHT30;62093;37.614;15.072;2023-07-16T08:39:02;26.31;60.48
73780;SHT30;62093;37.614;15.072;2023-07-16T08:41:28;26.31;60.48
73780;SHT30;62093;37.614;15.072;2023-07-16T08:43:54;26.31;60.44
73780;SHT30;62093;37.614;15.072;2023-07-16T08:46:20;26.31;60.46
73780;SHT30;62093;37.614;15.072;2023-07-16T08:48:47;26.31;60.45
73780;SHT30;62093;37.614;15.072;2023-07-16T08:51:15;26.34;60.40
73780;SHT30;62093;37.614;15.072;2023-07-16T08:53:42;26.34;60.40
73780;SHT30;62093;37.614;15.072;2023-07-16T08:56:09;26.34;60.40
73780;SHT30;62093;37.614;15.072;2023-07-16T08:58:35;26.35;60.37
73780;SHT30;62093;37.614;15.072;2023-07-16T09:01:03;26.38;60.36
73780;SHT30;62093;37.614;15.072;2023-07-16T09:03:31;26.35;60.33
73780;SHT30;62093;37.614;15.072;2023-07-16T09:05:56;26.38;60.32
73780;SHT30;62093;37.614;15.072;2023-07-16T09:08:22;26.38;60.30
73780;SHT30;62093;37.614;15.072;2023-07-16T09:10:55;26.39;60.28
73780;SHT30;62093;37.614;15.072;2023-07-16T09:13:22;26.42;60.26
73780;SHT30;62093;37.614;15.072;2023-07-16T09:15:53;26.44;60.25
73780;SHT30;62093;37.614;15.072;2023-07-16T09:18:21;26.39;60.21
73780;SHT30;62093;37.614;15.072;2023-07-16T09:20:48;26.41;60.21
73780;SHT30;62093;37.614;15.072;2023-07-16T09:23:17;26.44;60.17
73780;SHT30;62093;37.614;15.072;2023-07-16T09:25:43;26.44;60.14
73780;SHT30;62093;37.614;15.072;2023-07-16T09:28:09;26.44;60.12
73780;SHT30;62093;37.614;15.072;2023-07-16T09:30:35;26.47;60.12
73780;SHT30;62093;37.614;15.072;2023-07-16T09:33:30;26.47;60.11
73780;SHT30;62093;37.614;15.072;2023-07-16T09:35:56;26.48;60.07
73780;SHT30;62093;37.614;15.072;2023-07-16T09:38:22;26.45;60.05
73780;SHT30;62093;37.614;15.072;2023-07-16T09:40:51;26.47;60.04
73780;SHT30;62093;37.614;15.072;2023-07-16T09:43:17;26.48;60.04
73780;SHT30;62093;37.614;15.072;2023-07-16T09:45:43;26.51;60.01
73780;SHT30;62093;37.614;15.072;2023-07-16T09:48:10;26.49;59.98
73780;SHT30;62093;37.614;15.072;2023-07-16T09:50:36;26.51;59.94
73780;SHT30;62093;37.614;15.072;2023-07-16T09:53:05;26.52;59.95
73780;SHT30;62093;37.614;15.072;2023-07-16T09:55:34;26.51;59.91
73780;SHT30;62093;37.614;15.072;2023-07-16T09:58:01;26.51;59.91
73780;SHT30;62093;37.614;15.072;2023-07-16T10:00:29;26.51;59.88
73780;SHT30;62093;37.614;15.072;2023-07-16T10:02:55;26.53;59.87
73780;SHT30;62093;37.614;15.072;2023-07-16T10:05:25;26.52;59.84
73780;SHT30;62093;37.614;15.072;2023-07-16T10:07:53;26.55;59.84
73780;SHT30;62093;37.614;15.072;2023-07-16T10:10:20;26.56;59.83
73780;SHT30;62093;37.614;15.072;2023-07-16T10:13:07;26.58;59.84
73780;SHT30;62093;37.614;15.072;2023-07-16T10:15:33;26.56;59.80
73780;SHT30;62093;37.614;15.072;2023-07-16T10:17:59;26.56;59.79
73780;SHT30;62093;37.614;15.072;2023-07-16T10:20:33;26.59;59.78
73780;SHT30;62093;37.614;15.072;2023-07-16T10:23:20;26.60;59.73
73780;SHT30;62093;37.614;15.072;2023-07-16T10:25:59;26.63;59.73
73780;SHT30;62093;37.614;15.072;2023-07-16T10:28:25;26.62;59.70
73780;SHT30;62093;37.614;15.072;2023-07-16T10:30:51;26.60;59.67
73780;SHT30;62093;37.614;15.072;2023-07-16T10:33:17;26.60;59.64
73780;SHT30;62093;37.614;15.072;2023-07-16T10:35:45;26.63;59.60
73780;SHT30;62093;37.614;15.072;2023-07-16T10:38:11;26.65;59.62
73780;SHT30;62093;37.614;15.072;2023-07-16T10:40:41;26.67;59.58
73780;SHT30;62093;37.614;15.072;2023-07-16T10:43:08;26.68;59.60
73780;SHT30;62093;37.614;15.072;2023-07-16T10:45:34;26.67;59.59
73780;SHT30;62093;37.614;15.072;2023-07-16T10:47:59;26.67;59.60
73780;SHT30;62093;37.614;15.072;2023-07-16T10:50:25;26.67;59.58
73780;SHT30;62093;37.614;15.072;2023-07-16T10:52:57;26.69;59.55
73780;SHT30;62093;37.614;15.072;2023-07-16T10:55:23;26.71;59.51
73780;SHT30;62093;37.614;15.072;2023-07-16T10:57:50;26.68;59.49
73780;SHT30;62093;37.614;15.072;2023-07-16T11:00:17;26.71;59.50
73780;SHT30;62093;37.614;15.072;2023-07-16T11:02:43;26.69;59.52
73780;SHT30;62093;37.614;15.072;2023-07-16T11:05:11;26.71;59.51
73780;SHT30;62093;37.614;15.072;2023-07-16T11:07:38;26.73;59.48
73780;SHT30;62093;37.614;15.072;2023-07-16T11:10:08;26.73;59.45
73780;SHT30;62093;37.614;15.072;2023-07-16T11:12:34;26.72;59.44
73780;SHT30;62093;37.614;15.072;2023-07-16T11:14:59;26.72;59.46
73780;SHT30;62093;37.614;15.072;2023-07-16T11:17:25;26.75;59.41
73780;SHT30;62093;37.614;15.072;2023-07-16T11:19:53;26.75;59.40
73780;SHT30;62093;37.614;15.072;2023-07-16T11:22:19;26.75;59.39
73780;SHT30;62093;37.614;15.072;2023-07-16T11:24:49;26.75;59.39
73780;SHT30;62093;37.614;15.072;2023-07-16T11:27:23;26.75;59.35
73780;SHT30;62093;37.614;15.072;2023-07-16T11:29:54;26.76;59.32
73780;SHT30;62093;37.614;15.072;2023-07-16T11:32:28;26.79;59.29
73780;SHT30;62093;37.614;15.072;2023-07-16T11:34:55;26.82;59.30
73780;SHT30;62093;37.614;15.072;2023-07-16T11:37:22;26.79;59.24
73780;SHT30;62093;37.614;15.072;2023-07-16T11:39:49;26.79;59.26
73780;SHT30;62093;37.614;15.072;2023-07-16T11:42:22;26.80;59.17
73780;SHT30;62093;37.614;15.072;2023-07-16T11:44:49;26.82;59.20
73780;SHT30;62093;37.614;15.072;2023-07-16T11:47:15;26.82;59.18
73780;SHT30;62093;37.614;15.072;2023-07-16T11:49:41;26.80;59.19
73780;SHT30;62093;37.614;15.072;2023-07-16T11:52:07;26.83;59.16
73780;SHT30;62093;37.614;15.072;2023-07-16T11:54:33;26.86;59.13
73780;SHT30;62093;37.614;15.072;2023-07-16T11:56:59;26.85;59.09
73780;SHT30;62093;37.614;15.072;2023-07-16T11:59:24;26.85;59.10
73780;SHT30;62093;37.614;15.072;2023-07-16T12:01:50;26.85;59.10
73780;SHT30;62093;37.614;15.072;2023-07-16T12:04:16;26.85;59.06
73780;SHT30;62093;37.614;15.072;2023-07-16T12:06:43;26.86;59.03
73780;SHT30;62093;37.614;15.072;2023-07-16T12:09:09;26.88;59.08
73780;SHT30;62093;37.614;15.072;2023-07-16T12:11:35;26.86;59.00
73780;SHT30;62093;37.614;15.072;2023-07-16T12:14:04;26.89;59.01
73780;SHT30;62093;37.614;15.072;2023-07-16T12:16:30;26.88;58.98
73780;SHT30;62093;37.614;15.072;2023-07-16T12:18:56;26.89;59.01
73780;SHT30;62093;37.614;15.072;2023-07-16T12:21:22;26.92;58.96
73780;SHT30;62093;37.614;15.072;2023-07-16T12:23:48;26.90;58.90
73780;SHT30;62093;37.614;15.072;2023-07-16T12:26:14;26.90;58.88
73780;SHT30;62093;37.614;15.072;2023-07-16T12:28:40;26.90;58.89
73780;SHT30;62093;37.614;15.072;2023-07-16T12:31:06;26.92;58.91
73780;SHT30;62093;37.614;15.072;2023-07-16T12:33:31;26.95;58.88
73780;SHT30;62093;37.614;15.072;2023-07-16T12:35:57;26.95;58.82
73780;SHT30;62093;37.614;15.072;2023-07-16T12:38:23;26.95;58.87
73780;SHT30;62093;37.614;15.072;2023-07-16T12:40:49;26.95;58.88
73780;SHT30;62093;37.614;15.072;2023-07-16T12:43:15;26.95;58.81
73780;SHT30;62093;37.614;15.072;2023-07-16T12:45:40;26.98;58.79
73780;SHT30;62093;37.614;15.072;2023-07-16T12:48:06;26.99;58.82
73780;SHT30;62093;37.614;15.072;2023-07-16T12:50:32;27.00;58.77
73780;SHT30;62093;37.614;15.072;2023-07-16T12:52:58;27.00;58.75
73780;SHT30;62093;37.614;15.072;2023-07-16T12:55:23;26.99;58.76
73780;SHT30;62093;37.614;15.072;2023-07-16T12:57:50;27.02;58.74
73780;SHT30;62093;37.614;15.072;2023-07-16T13:00:16;26.99;58.68
73780;SHT30;62093;37.614;15.072;2023-07-16T13:02:42;27.02;58.70
73780;SHT30;62093;37.614;15.072;2023-07-16T13:05:08;27.02;58.71
73780;SHT30;62093;37.614;15.072;2023-07-16T13:07:33;27.03;58.67
73780;SHT30;62093;37.614;15.072;2023-07-16T13:09:59;27.06;58.67
73780;SHT30;62093;37.614;15.072;2023-07-16T13:12:25;27.04;58.63
73780;SHT30;62093;37.614;15.072;2023-07-16T13:14:51;27.04;58.58
73780;SHT30;62093;37.614;15.072;2023-07-16T13:17:17;27.04;58.63
73780;SHT30;62093;37.614;15.072;2023-07-16T13:19:45;27.06;58.54
73780;SHT30;62093;37.614;15.072;2023-07-16T13:22:11;27.06;58.57
73780;SHT30;62093;37.614;15.072;2023-07-16T13:24:37;27.04;58.57
73780;SHT30;62093;37.614;15.072;2023-07-16T13:27:03;27.04;58.51
73780;SHT30;62093;37.614;15.072;2023-07-16T13:29:29;27.09;58.49
73780;SHT30;62093;37.614;15.072;2023-07-16T13:31:55;27.07;58.50
73780;SHT30;62093;37.614;15.072;2023-07-16T13:34:21;27.10;58.49
73780;SHT30;62093;37.614;15.072;2023-07-16T13:36:46;27.09;58.45
73780;SHT30;62093;37.614;15.072;2023-07-16T13:39:12;27.09;58.47
73780;SHT30;62093;37.614;15.072;2023-07-16T13:41:39;27.11;58.42
73780;SHT30;62093;37.614;15.072;2023-07-16T13:44:05;27.13;58.44
73780;SHT30;62093;37.614;15.072;2023-07-16T13:46:31;27.13;58.43
73780;SHT30;62093;37.614;15.072;2023-07-16T13:48:56;27.13;58.42
73780;SHT30;62093;37.614;15.072;2023-07-16T13:51:23;27.14;58.36
73780;SHT30;62093;37.614;15.072;2023-07-16T13:53:48;27.16;58.38
73780;SHT30;62093;37.614;15.072;2023-07-16T13:56:14;27.16;58.36
73780;SHT30;62093;37.614;15.072;2023-07-16T13:58:40;27.16;58.37
73780;SHT30;62093;37.614;15.072;2023-07-16T14:01:06;27.17;58.35
73780;SHT30;62093;37.614;15.072;2023-07-16T14:03:32;27.17;58.32
73780;SHT30;62093;37.614;15.072;2023-07-16T14:05:57;27.14;58.30
73780;SHT30;62093;37.614;15.072;2023-07-16T14:08:23;27.16;58.28
73780;SHT30;62093;37.614;15.072;2023-07-16T14:10:49;27.19;58.32
73780;SHT30;62093;37.614;15.072;2023-07-16T14:13:15;27.19;58.26
73780;SHT30;62093;37.614;15.072;2023-07-16T14:15:42;27.17;58.27
73780;SHT30;62093;37.614;15.072;2023-07-16T14:18:08;27.17;58.26
73780;SHT30;62093;37.614;15.072;2023-07-16T14:20:33;27.19;58.24
73780;SHT30;62093;37.614;15.072;2023-07-16T14:22:59;27.23;58.26
73780;SHT30;62093;37.614;15.072;2023-07-16T14:25:25;27.23;58.19
73780;SHT30;62093;37.614;15.072;2023-07-16T14:27:51;27.20;58.23
73780;SHT30;62093;37.614;15.072;2023-07-16T14:30:17;27.23;58.25
73780;SHT30;62093;37.614;15.072;2023-07-16T14:32:43;27.27;58.22
73780;SHT30;62093;37.614;15.072;2023-07-16T14:35:09;27.23;58.20
73780;SHT30;62093;37.614;15.072;2023-07-16T14:37:35;27.23;58.19
73780;SHT30;62093;37.614;15.072;2023-07-16T14:40:00;27.24;58.20
73780;SHT30;62093;37.614;15.072;2023-07-16T14:42:26;27.22;58.17
73780;SHT30;62093;37.614;15.072;2023-07-16T14:44:52;27.23;58.14
73780;SHT30;62093;37.614;15.072;2023-07-16T14:47:18;27.27;58.18
73780;SHT30;62093;37.614;15.072;2023-07-16T14:49:44;27.24;58.17
73780;SHT30;62093;37.614;15.072;2023-07-16T14:52:09;27.22;58.15
73780;SHT30;62093;37.614;15.072;2023-07-16T14:54:35;27.26;58.11
73780;SHT30;62093;37.614;15.072;2023-07-16T14:57:02;27.29;58.09
73780;SHT30;62093;37.614;15.072;2023-07-16T14:59:28;27.27;58.11
73780;SHT30;62093;37.614;15.072;2023-07-16T15:01:54;27.29;58.11
73780;SHT30;62093;37.614;15.072;2023-07-16T15:04:20;27.27;58.11
73780;SHT30;62093;37.614;15.072;2023-07-16T15:06:46;27.27;58.09
73780;SHT30;62093;37.614;15.072;2023-07-16T15:09:12;27.27;58.09
73780;SHT30;62093;37.614;15.072;2023-07-16T15:11:39;27.24;58.06
73780;SHT30;62093;37.614;15.072;2023-07-16T15:14:05;27.27;58.02
73780;SHT30;62093;37.614;15.072;2023-07-16T15:16:31;27.27;58.02
73780;SHT30;62093;37.614;15.072;2023-07-16T15:18:57;27.26;58.04
73780;SHT30;62093;37.614;15.072;2023-07-16T15:21:22;27.26;58.08